This is the latest recevied weather packets stored in our database for station/object K0PFX-8. If no packets are shown the sender has not sent any weather packets the latest 10 day(s).
| Time | Temp. | Humidity | Pressure | Rain* | Wind** | Luminosity | Snow |
|---|---|---|---|---|---|---|---|
| 1777611110 | 12.22° C | 86% | 1017.6 hPa | 0.25 mm | 0.89 m/s, 295° | - | - |
| 1777610209 | 12.22° C | 92% | 1017.5 hPa | 0.76 mm | 0 m/s | - | - |
| 1777609311 | 12.78° C | 89% | 1017.3 hPa | 0.76 mm | 0 m/s | - | - |
| 1777608410 | 12.78° C | 88% | 1017.1 hPa | 0.76 mm | 0 m/s | - | - |
| 1777607511 | 13.33° C | 83% | 1017 hPa | 0.76 mm | 0 m/s | - | - |
| 1777606610 | 13.89° C | 77% | 1017 hPa | 0 mm | 0 m/s | - | - |
| 1777605711 | 13.89° C | 72% | 1017 hPa | 0 mm | 1.34 m/s, 273° | - | - |
| 1777604810 | 13.89° C | 70% | 1016.8 hPa | 0 mm | 0 m/s | - | - |
| 1777603912 | 14.44° C | 69% | 1016.7 hPa | 0 mm | 0 m/s | - | - |
| 1777603011 | 15° C | 65% | 1016.7 hPa | 0 mm | 0 m/s | - | - |
| 1777602112 | 15.56° C | 58% | 1016.5 hPa | 0 mm | 1.79 m/s, 270° | - | - |
| 1777601211 | 15.56° C | 50% | 1016.5 hPa | 0 mm | 1.79 m/s, 301° | - | - |
| 1777600313 | 15.56° C | 47% | 1016.1 hPa | 0 mm | 3.58 m/s, 242° | - | - |
| 1777599412 | 16.11° C | 43% | 1015.9 hPa | 0 mm | 0 m/s | - | - |
| 1777598513 | 16.11° C | 41% | 1015.7 hPa | 0 mm | 0 m/s | - | - |
| 1777597612 | 16.67° C | 38% | 1015.6 hPa | 0 mm | 1.34 m/s, 257° | - | - |
| 1777596714 | 16.67° C | 36% | 1015.5 hPa | 0 mm | 0 m/s | - | - |
| 1777595812 | 16.67° C | 37% | 1015.4 hPa | 0 mm | 0.89 m/s, 250° | - | - |
| 1777594914 | 16.67° C | 35% | 1015.4 hPa | 0 mm | 2.68 m/s, 253° | - | - |
| 1777594013 | 17.22° C | 34% | 1015.5 hPa | 0 mm | 3.58 m/s, 249° | - | - |
| 1777593115 | 17.22° C | 33% | 1015.5 hPa | 0 mm | 4.47 m/s, 242° | - | - |
| 1777592213 | 17.22° C | 33% | 1015.6 hPa | 0 mm | 3.58 m/s, 264° | - | - |
| 1777591315 | 17.78° C | 31% | 1015.7 hPa | 0 mm | 2.68 m/s, 250° | - | - |
| 1777590414 | 17.78° C | 36% | 1015.8 hPa | 0 mm | 1.79 m/s, 249° | - | - |
| 1777589516 | 17.22° C | 33% | 1015.7 hPa | 0 mm | 0.89 m/s, 256° | - | - |
* Rain latest hour (hover to see other rain measurements)
** Current wind speed in m/s (hover to see current wind gust speed)